Historyczne dane pomiarowe

Dodano dane terminowe – wersja testowa.

Dane z okresu 1951-2019

Wersja bazy: 1.34 [2019-03-16, lista zmian], aktualizacja planowana na 2019-04-15

Dane meteo z obszaru Polski uzyskane na podstawie danych udostępnionych przez Instytut Meteorologii i Gospodarki Wodnej – Państwowy Instytut Badawczy.

 

Wybierz Datę:    

       

TemperaturaWilgotnośćZachmurzenieWiatrCiśnienieWidzialnośćZjawiska
 Data    tng td wb rh cc ccl cl cm ch dir g1 g2 mslp ppp      
1994-07-18 00:00:00 14.7--- 14.7 14.7100wxwx0wx--1018.9 978.2 0.0---wx
1994-07-18 01:00:00 14.5--- 14.5 14.5100wxwx0wx--1018.8 978.1----wxw1
1994-07-18 02:00:00 14.5--- 14.5 14.5100wxwx0wx--1018.6 977.9----wxw1
1994-07-18 03:00:00 13.8--- 13.8 13.8100wxwx0wx--1018.6 977.8----wxw1
1994-07-18 04:00:00 13.3--- 13.3 13.3100wxwx0wx--1018.5 977.7----wxw1
1994-07-18 05:00:00 13.5--- 13.5 13.5100wxwx0wx--1018.6 977.8----wxw1
1994-07-18 06:00:00 14.3--- 14.3 14.3100wxwx0wx--1018.1 977.4 0.3---wxw1
1994-07-18 07:00:00 16.8--- 15.8 16.294wxwxwx0wx--1017.7 977.4----wx
1994-07-18 08:00:00 20.5--- 16.6 18.078wxwxwx0wx--1017.2 977.4----wx
1994-07-18 09:00:00 22.4--- 17.4 19.173wxwxwxwx1wx--1016.9 977.4----wxw1
1994-07-18 10:00:00 22.3--- 17.2 19.073wxwxwxwx0wx--1017.4 977.8----wx
1994-07-18 11:00:00 20.5--- 16.9 18.280wxwxwx0wx--1017.8 978.0----wx
1994-07-18 12:00:00 21.0--- 17.3 18.679wxwxwx0wx--1017.8 978.0 0.0---wxw1
1994-07-18 13:00:00 21.4--- 16.3 18.173wxwxwxwx1wx--1016.8 977.1----wx
1994-07-18 14:00:00 22.7--- 16.7 18.869wxwxwxwx0wx--1016.3 976.8----wx
1994-07-18 15:00:00 22.2--- 15.6 18.066wxwxwxwx1wx--1015.8 976.3----wxw1
1994-07-18 16:00:00 22.3--- 16.2 18.469wxwxwxwx1wx--1015.7 976.2----wx
1994-07-18 17:00:00 22.0--- 16.1 18.269wxwxwxwx1wx--1015.4 975.9----wx
1994-07-18 18:00:00 21.4--- 15.7 17.870wxwxwxwx1wx--1015.4 975.8 0.0---wxw1
1994-07-18 19:00:00 19.8--- 16.7 17.882wxwxwxwxwx0wx--1015.6 975.8----wx
1994-07-18 20:00:00 19.2--- 15.9 17.181wxwxwxwx0wx--1016.2 976.3----wx
1994-07-18 21:00:00 18.6--- 14.4 16.076wxwxwxwx1wx--1016.4 976.4----wx
1994-07-18 22:00:00 18.2--- 13.4 15.374wxwxwx2wx--1016.2 976.1----wx
1994-07-18 23:00:00 17.4--- 13.4 15.077wxwxwx0wx--1016.4 976.2----wx

 

Źródłem pochodzenia danych jest Instytut Meteorologii i Gospodarki Wodnej – Państwowy Instytut Badawczy. Dane Instytutu Meteorologii i Gospodarki Wodnej – Państwowego Instytutu Badawczego zostały przetworzone.

Dane źródłowe można odnaleźć na stronie https://dane.imgw.pl